Time;durP1;ratioP1;P1;durP2;ratioP2;P2;SDS_P1;SDS_P2;PMS_P1;PMS_P2;Temp;Humidity;BMP_temperature;BMP_pressure;BME280_temperature;BME280_humidity;BME280_pressure;Samples;Min_cycle;Max_cycle;Signal;HPM_P1;HPM_P2
2020/12/09 00:02:08;;;;;;;50.03;25.63;;;3.50;99.90;;;;;;5095491;28;20028;-63
2020/12/09 00:04:33;;;;;;;46.40;25.83;;;3.60;99.90;;;;;;5095081;28;20024;-64
2020/12/09 00:06:59;;;;;;;45.65;24.67;;;3.70;99.90;;;;;;5095061;28;20024;-63
2020/12/09 00:09:25;;;;;;;47.33;24.10;;;3.70;99.90;;;;;;5095374;28;20025;-63
2020/12/09 00:11:54;;;;;;;48.83;25.33;;;3.60;99.90;;;;;;5093550;28;20024;-63
2020/12/09 00:14:20;;;;;;;46.30;25.20;;;3.60;99.90;;;;;;5093445;28;20124;-63
2020/12/09 00:16:46;;;;;;;47.72;25.40;;;3.50;99.90;;;;;;5094592;28;20032;-62
2020/12/09 00:19:12;;;;;;;49.07;25.43;;;3.50;99.90;;;;;;5095076;28;20471;-62
2020/12/09 00:21:37;;;;;;;52.57;25.83;;;3.50;99.90;;;;;;5094645;28;20481;-63
2020/12/09 00:24:04;;;;;;;46.50;25.73;;;3.50;99.90;;;;;;5094729;28;20123;-60
2020/12/09 00:26:30;;;;;;;;;;;3.50;99.90;;;;;;5094779;28;20107;-62
2020/12/09 00:28:57;;;;;;;44.92;23.58;;;3.40;99.90;;;;;;5094767;28;19953;-63
2020/12/09 00:31:26;;;;;;;47.78;25.98;;;3.40;99.90;;;;;;5094460;28;20020;-63
2020/12/09 00:33:52;;;;;;;46.05;25.35;;;3.40;99.90;;;;;;5094458;28;20024;-62
2020/12/09 00:36:20;;;;;;;48.58;25.88;;;3.40;99.90;;;;;;5093054;28;20438;-62
2020/12/09 00:38:46;;;;;;;50.53;26.40;;;3.50;99.90;;;;;;5094271;28;20031;-62
2020/12/09 00:41:22;;;;;;;51.03;26.98;;;3.50;99.90;;;;;;5094168;28;20020;-64
2020/12/09 00:43:48;;;;;;;48.97;26.58;;;3.40;99.90;;;;;;5094267;28;20076;-62
2020/12/09 00:46:19;;;;;;;49.05;25.88;;;3.50;99.90;;;;;;5094083;28;20059;-62
2020/12/09 00:48:45;;;;;;;48.38;25.15;;;3.50;99.90;;;;;;5094352;28;20166;-62
2020/12/09 00:51:18;;;;;;;52.22;25.42;;;3.40;99.90;;;;;;5094099;28;20478;-62
2020/12/09 00:53:44;;;;;;;46.38;26.30;;;3.40;99.90;;;;;;5094262;28;20029;-62
2020/12/09 00:56:10;;;;;;;52.30;26.42;;;3.40;99.90;;;;;;5094069;28;20063;-63
2020/12/09 00:58:36;;;;;;;49.17;26.30;;;3.40;99.90;;;;;;5092911;28;20121;-64
2020/12/09 01:01:04;;;;;;;49.63;26.13;;;3.40;99.90;;;;;;5093930;28;20144;-63
2020/12/09 01:03:30;;;;;;;52.65;25.80;;;3.40;99.90;;;;;;5093887;28;20036;-63
2020/12/09 01:05:56;;;;;;;;;;;3.50;99.90;;;;;;5094548;28;20016;-63
2020/12/09 01:08:22;;;;;;;50.28;25.48;;;3.50;99.90;;;;;;5094002;28;19904;-63
2020/12/09 01:10:47;;;;;;;49.53;26.33;;;3.60;99.90;;;;;;5094028;28;20019;-63
2020/12/09 01:13:15;;;;;;;49.13;26.57;;;3.60;99.90;;;;;;5093724;28;20020;-63
2020/12/09 01:15:41;;;;;;;49.22;27.25;;;3.60;99.90;;;;;;5093781;28;20024;-63
2020/12/09 01:18:06;;;;;;;47.60;26.10;;;3.70;99.90;;;;;;5093862;28;20028;-63
2020/12/09 01:20:32;;;;;;;51.90;27.13;;;3.60;99.90;;;;;;5092387;28;20365;-61
2020/12/09 01:22:58;;;;;;;47.77;26.20;;;3.60;99.90;;;;;;5094316;28;20436;-61
2020/12/09 01:25:23;;;;;;;49.60;27.13;;;3.60;99.90;;;;;;5093676;28;20024;-63
2020/12/09 01:27:49;;;;;;;51.20;25.60;;;3.60;99.90;;;;;;5093686;28;20024;-63
2020/12/09 01:30:15;;;;;;;49.70;27.23;;;3.60;99.90;;;;;;5094047;28;20061;-63
2020/12/09 01:32:40;;;;;;;48.30;25.53;;;3.60;99.90;;;;;;5092119;28;20115;-63
2020/12/09 01:35:06;;;;;;;46.40;25.53;;;3.60;99.90;;;;;;5092325;28;20024;-63
2020/12/09 01:37:32;;;;;;;48.87;25.70;;;3.70;99.90;;;;;;5094084;28;20030;-63
2020/12/09 01:39:57;;;;;;;52.17;26.43;;;3.70;99.90;;;;;;5094075;28;20024;-63
2020/12/09 01:42:23;;;;;;;49.13;26.40;;;3.70;99.90;;;;;;5094359;28;20376;-62
2020/12/09 01:44:48;;;;;;;48.13;25.87;;;3.70;99.90;;;;;;5093666;28;20031;-63
2020/12/09 01:47:14;;;;;;;46.93;26.67;;;3.70;99.90;;;;;;5093200;28;20016;-63
2020/12/09 01:49:40;;;;;;;51.73;28.13;;;3.60;99.90;;;;;;5093001;28;20388;-63
2020/12/09 01:52:05;;;;;;;52.80;27.87;;;3.60;99.90;;;;;;5091970;28;20473;-63
2020/12/09 01:54:31;;;;;;;51.00;26.00;;;3.60;99.90;;;;;;5091971;28;20052;-63
2020/12/09 01:57:09;;;;;;;52.72;25.85;;;3.60;99.90;;;;;;5093221;28;20039;-63
2020/12/09 01:59:36;;;;;;;52.10;27.65;;;3.60;99.90;;;;;;5093451;28;20024;-63
2020/12/09 02:02:04;;;;;;;53.78;27.05;;;3.60;99.90;;;;;;5092293;28;20070;-63
2020/12/09 02:04:30;;;;;;;52.92;27.05;;;3.60;99.90;;;;;;5093089;28;20024;-61
2020/12/09 02:06:56;;;;;;;48.63;26.13;;;3.60;99.90;;;;;;5093077;28;20031;-62
2020/12/09 02:09:22;;;;;;;51.10;26.63;;;3.60;99.90;;;;;;5093148;28;20032;-61
2020/12/09 02:11:49;;;;;;;47.22;25.20;;;3.60;99.90;;;;;;5093377;28;20020;-60
2020/12/09 02:14:14;;;;;;;53.03;27.05;;;3.70;99.90;;;;;;5093370;28;20031;-61
2020/12/09 02:16:40;;;;;;;47.37;25.23;;;3.60;99.90;;;;;;5092897;28;20016;-61
2020/12/09 02:19:05;;;;;;;49.53;26.23;;;3.60;99.90;;;;;;5092956;28;20020;-61
2020/12/09 02:21:35;;;;;;;50.77;26.10;;;3.60;99.90;;;;;;5092966;28;20074;-63
2020/12/09 02:24:01;;;;;;;50.97;26.98;;;3.50;99.90;;;;;;5092946;28;20085;-63
2020/12/09 02:26:28;;;;;;;49.97;26.88;;;3.50;99.90;;;;;;5093174;28;20538;-63
2020/12/09 02:28:54;;;;;;;51.05;26.85;;;3.50;99.90;;;;;;5093093;28;20024;-63
2020/12/09 02:31:19;;;;;;;50.27;25.97;;;3.50;99.90;;;;;;5092984;28;20387;-63
2020/12/09 02:33:45;;;;;;;50.90;27.47;;;3.50;99.90;;;;;;5091657;28;20766;-63
2020/12/09 02:36:11;;;;;;;47.73;25.63;;;3.60;99.90;;;;;;5092862;28;20039;-63
2020/12/09 02:38:37;;;;;;;52.57;26.57;;;3.60;99.90;;;;;;5092777;28;20071;-63
2020/12/09 02:41:02;;;;;;;48.60;27.13;;;3.60;99.90;;;;;;5093000;28;20024;-63
2020/12/09 02:43:28;;;;;;;52.47;27.53;;;3.60;99.90;;;;;;5092843;28;20090;-63
2020/12/09 02:45:54;;;;;;;53.53;27.23;;;3.50;99.90;;;;;;5092859;28;20270;-63
2020/12/09 02:48:19;;;;;;;49.90;26.60;;;3.50;99.90;;;;;;5092721;28;20028;-64
2020/12/09 02:50:45;;;;;;;51.63;27.80;;;3.50;99.90;;;;;;5093107;28;20028;-62
2020/12/09 02:53:10;;;;;;;52.57;25.73;;;3.50;99.90;;;;;;5092870;28;20025;-66
2020/12/09 02:55:36;;;;;;;50.67;25.97;;;3.50;99.90;;;;;;5093694;28;20024;-69
2020/12/09 02:58:02;;;;;;;50.77;26.50;;;3.50;99.90;;;;;;5093359;28;20040;-65
2020/12/09 03:00:27;;;;;;;49.97;26.47;;;3.60;99.90;;;;;;5094369;28;20495;-64
2020/12/09 03:02:53;;;;;;;51.50;27.60;;;3.60;99.90;;;;;;5096555;28;20039;-64
2020/12/09 03:05:18;;;;;;;47.40;25.30;;;3.70;99.90;;;;;;5098395;28;20028;-62
2020/12/09 03:07:44;;;;;;;48.87;26.50;;;3.70;99.90;;;;;;5100170;28;20035;-63
2020/12/09 03:10:09;;;;;;;49.40;26.07;;;3.70;99.90;;;;;;5098866;28;20024;-60
2020/12/09 03:12:35;;;;;;;49.40;26.80;;;3.70;99.90;;;;;;5096097;28;20028;-61
2020/12/09 03:15:01;;;;;;;51.50;26.20;;;3.70;99.90;;;;;;5094635;28;20040;-62
2020/12/09 03:17:26;;;;;;;48.33;26.27;;;3.70;99.90;;;;;;5095824;28;20024;-61
2020/12/09 03:19:52;;;;;;;49.57;26.67;;;3.80;99.90;;;;;;5095827;28;20032;-62
2020/12/09 03:22:18;;;;;;;47.43;25.43;;;3.80;99.90;;;;;;5094635;28;20024;-62
2020/12/09 03:24:43;;;;;;;45.03;24.97;;;3.80;99.90;;;;;;5094350;28;20162;-62
2020/12/09 03:27:09;;;;;;;48.43;26.70;;;3.80;99.90;;;;;;5094280;28;20024;-63
2020/12/09 03:29:34;;;;;;;48.03;26.07;;;3.80;99.90;;;;;;5094314;28;20104;-60
2020/12/09 03:32:00;;;;;;;49.90;26.37;;;3.80;99.90;;;;;;5095660;28;20028;-63
2020/12/09 03:34:26;;;;;;;46.83;26.17;;;3.80;99.90;;;;;;5095858;28;20366;-63
2020/12/09 03:36:51;;;;;;;47.23;25.43;;;3.80;99.90;;;;;;5095666;28;20020;-62
2020/12/09 03:39:17;;;;;;;46.67;25.33;;;3.90;99.90;;;;;;5094189;28;20051;-63
2020/12/09 03:41:43;;;;;;;50.27;25.43;;;4.00;99.90;;;;;;5095458;28;20032;-58
2020/12/09 03:44:08;;;;;;;51.17;29.20;;;3.90;99.90;;;;;;5095540;28;20353;-63
2020/12/09 03:46:34;;;;;;;50.83;25.53;;;3.90;99.90;;;;;;5095221;28;20035;-62
2020/12/09 03:49:00;;;;;;;44.33;25.90;;;3.80;99.90;;;;;;5095294;28;20077;-62
2020/12/09 03:51:25;;;;;;;48.23;26.40;;;3.80;99.90;;;;;;5095149;28;20020;-61
2020/12/09 03:53:51;;;;;;;46.60;25.17;;;4.00;99.90;;;;;;5095467;28;20060;-62
2020/12/09 03:56:17;;;;;;;48.33;26.50;;;4.00;99.90;;;;;;5095269;28;20028;-61
2020/12/09 03:58:42;;;;;;;45.60;25.77;;;3.90;99.90;;;;;;5093592;28;20036;-62
2020/12/09 04:01:08;;;;;;;49.10;26.47;;;3.90;99.90;;;;;;5095224;28;20575;-60
2020/12/09 04:03:33;;;;;;;49.17;25.97;;;3.90;99.90;;;;;;5095138;28;20043;-62
2020/12/09 04:05:59;;;;;;;47.27;25.40;;;3.90;99.90;;;;;;5095088;28;20040;-62
2020/12/09 04:08:24;;;;;;;49.93;26.13;;;3.90;99.90;;;;;;5095033;28;20361;-61
2020/12/09 04:10:50;;;;;;;48.07;25.37;;;3.80;99.90;;;;;;5094739;28;20385;-63
2020/12/09 04:13:16;;;;;;;48.35;26.17;;;3.80;99.90;;;;;;5095778;28;20074;-63
2020/12/09 04:15:42;;;;;;;48.07;26.33;;;3.80;99.90;;;;;;5095147;28;20503;-63
2020/12/09 04:18:07;;;;;;;46.73;25.47;;;3.80;99.90;;;;;;5095553;28;20063;-63
2020/12/09 04:20:33;;;;;;;44.67;26.13;;;3.80;99.90;;;;;;5095948;28;20028;-62
2020/12/09 04:22:59;;;;;;;46.90;25.63;;;3.80;99.90;;;;;;5095109;28;20419;-63
2020/12/09 04:25:25;;;;;;;46.67;27.05;;;3.80;99.90;;;;;;5093710;28;20392;-60
2020/12/09 04:27:51;;;;;;;51.33;27.50;;;3.80;99.90;;;;;;5094697;28;20027;-62
2020/12/09 04:30:16;;;;;;;51.47;26.00;;;3.80;99.90;;;;;;5094744;28;20027;-61
2020/12/09 04:32:42;;;;;;;47.87;26.07;;;3.80;99.90;;;;;;5095016;28;20492;-61
2020/12/09 04:35:08;;;;;;;48.67;26.27;;;3.80;99.90;;;;;;5093318;28;20393;-61
2020/12/09 04:37:34;;;;;;;48.75;26.60;;;3.80;99.90;;;;;;5094488;28;20065;-61
2020/12/09 04:39:59;;;;;;;51.67;26.97;;;3.80;99.90;;;;;;5093351;28;20089;-62
2020/12/09 04:42:26;;;;;;;50.90;26.40;;;3.90;99.90;;;;;;5093269;28;20063;-61
2020/12/09 04:44:52;;;;;;;;;;;3.90;99.90;;;;;;5095269;28;20024;-61
2020/12/09 04:47:24;;;;;;;50.03;25.90;;;3.90;99.90;;;;;;5094287;28;19904;-61
2020/12/09 04:50:06;;;;;;;49.38;27.63;;;3.80;99.90;;;;;;5095182;28;20104;-61
2020/12/09 04:52:59;;;;;;;49.42;26.45;;;3.90;99.90;;;;;;5094461;28;20051;-60
2020/12/09 04:55:26;;;;;;;46.92;25.67;;;3.90;99.90;;;;;;5094740;28;20102;-61
2020/12/09 04:57:54;;;;;;;47.65;26.27;;;3.90;99.90;;;;;;5094169;28;20534;-61
2020/12/09 05:00:21;;;;;;;43.75;25.23;;;3.90;99.90;;;;;;5094345;28;20062;-61
2020/12/09 05:02:48;;;;;;;;;;;4.00;99.90;;;;;;5094947;28;20016;-62
2020/12/09 05:05:21;;;;;;;51.08;25.17;;;3.90;99.90;;;;;;5094625;28;19908;-62
2020/12/09 05:07:49;;;;;;;50.35;26.70;;;3.90;99.90;;;;;;5094317;28;20024;-61
2020/12/09 05:10:20;;;;;;;55.80;27.33;;;3.90;99.90;;;;;;5094299;28;20054;-61
2020/12/09 05:12:48;;;;;;;50.42;25.90;;;3.90;99.90;;;;;;5092848;28;20020;-62
2020/12/09 05:15:18;;;;;;;45.15;25.55;;;3.90;99.90;;;;;;5092947;28;20024;-62
2020/12/09 05:18:09;;;;;;;49.53;26.30;;;3.90;99.90;;;;;;5097806;28;20024;-62
2020/12/09 05:20:40;;;;;;;46.30;25.25;;;3.90;99.90;;;;;;5098589;28;20048;-64
2020/12/09 05:23:10;;;;;;;46.70;24.52;;;4.00;99.90;;;;;;5097589;28;20039;-59
2020/12/09 05:25:37;;;;;;;50.47;26.30;;;4.00;99.90;;;;;;5096773;28;20032;-62
2020/12/09 05:28:05;;;;;;;50.95;26.30;;;4.00;99.90;;;;;;5098513;28;20081;-62
2020/12/09 05:30:45;;;;;;;44.30;25.17;;;4.00;99.90;;;;;;5096829;28;20028;-62
2020/12/09 05:33:28;;;;;;;43.85;24.08;;;4.00;99.90;;;;;;5098470;28;20016;-64
2020/12/09 05:36:03;;;;;;;44.08;25.65;;;4.00;99.90;;;;;;5094695;28;20392;-61
2020/12/09 05:38:30;;;;;;;51.10;27.23;;;4.00;99.90;;;;;;5093870;28;20538;-64
2020/12/09 05:40:56;;;;;;;;;;;4.00;99.90;;;;;;5093037;28;20024;-59
2020/12/09 05:43:22;;;;;;;50.80;25.63;;;4.00;99.90;;;;;;5093731;28;19996;-61
2020/12/09 05:45:48;;;;;;;50.88;25.75;;;4.00;99.90;;;;;;5093561;28;20027;-61
2020/12/09 05:48:25;;;;;;;49.70;25.25;;;4.00;99.90;;;;;;5091953;28;20028;-62
2020/12/09 05:50:59;;;;;;;49.17;25.83;;;4.00;99.90;;;;;;5093428;28;20107;-61
2020/12/09 05:53:27;;;;;;;46.47;25.42;;;4.00;99.90;;;;;;5093395;28;20032;-61
2020/12/09 05:56:12;;;;;;;45.90;24.75;;;4.00;99.90;;;;;;5091913;28;20115;-62
2020/12/09 05:58:46;;;;;;;46.53;26.10;;;3.90;99.90;;;;;;5093531;28;20062;-60
2020/12/09 06:01:19;;;;;;;49.55;25.52;;;3.90;99.90;;;;;;5093433;28;20035;-61
2020/12/09 06:03:54;;;;;;;45.60;26.35;;;3.90;99.90;;;;;;5091755;28;20024;-61
2020/12/09 06:06:27;;;;;;;44.92;25.20;;;3.90;99.90;;;;;;5093080;28;20035;-60
2020/12/09 06:08:55;;;;;;;45.63;25.67;;;4.00;99.90;;;;;;5093120;28;20043;-62
2020/12/09 06:11:32;;;;;;;47.47;25.63;;;4.00;99.90;;;;;;5093271;28;20023;-62
2020/12/09 06:13:58;;;;;;;49.70;26.38;;;4.00;99.90;;;;;;5097616;28;20046;-62
2020/12/09 06:16:24;;;;;;;50.88;27.17;;;3.90;99.90;;;;;;5096392;28;20025;-63
2020/12/09 06:18:55;;;;;;;47.60;26.30;;;3.90;99.90;;;;;;5091723;28;20492;-63
2020/12/09 06:21:22;;;;;;;51.35;27.52;;;4.00;99.90;;;;;;5093073;28;20538;-59
2020/12/09 06:23:49;;;;;;;46.63;26.77;;;4.00;99.90;;;;;;5093746;28;20020;-63
2020/12/09 06:26:15;;;;;;;52.80;28.30;;;4.00;99.90;;;;;;5095634;28;20039;-61
2020/12/09 06:28:49;;;;;;;49.03;26.20;;;4.00;99.90;;;;;;5092562;28;20426;-58
2020/12/09 06:31:17;;;;;;;50.00;26.88;;;4.00;99.90;;;;;;5093788;28;20154;-60
2020/12/09 06:33:52;;;;;;;48.08;25.45;;;4.10;99.90;;;;;;5093778;28;20031;-61
2020/12/09 06:36:26;;;;;;;51.03;27.25;;;4.20;99.90;;;;;;5097232;28;20491;-62
2020/12/09 06:39:12;;;;;;;47.70;25.92;;;4.20;99.90;;;;;;5096773;28;20481;-60
2020/12/09 06:41:44;;;;;;;49.85;26.13;;;4.30;99.90;;;;;;5097150;28;20024;-62
2020/12/09 06:44:15;;;;;;;46.55;24.45;;;4.20;99.90;;;;;;5097118;28;20080;-62
2020/12/09 06:46:46;;;;;;;50.15;26.48;;;4.30;99.90;;;;;;5097186;28;20024;-59
2020/12/09 06:49:35;;;;;;;48.20;25.63;;;4.30;99.90;;;;;;5097114;28;20016;-60
2020/12/09 06:52:10;;;;;;;51.53;26.90;;;4.20;99.90;;;;;;5100507;28;20012;-62
2020/12/09 06:54:41;;;;;;;52.90;26.13;;;4.20;99.90;;;;;;5098543;28;20028;-61
2020/12/09 06:57:33;;;;;;;51.17;25.92;;;4.20;99.90;;;;;;5099311;28;20036;-62
2020/12/09 07:00:12;;;;;;;52.63;27.25;;;4.20;99.90;;;;;;5098566;28;20047;-62
2020/12/09 07:02:42;;;;;;;51.90;26.42;;;4.20;99.90;;;;;;5095804;28;20059;-63
2020/12/09 07:05:09;;;;;;;52.92;26.83;;;4.20;99.90;;;;;;5096045;28;20028;-63
2020/12/09 07:07:39;;;;;;;49.90;27.58;;;4.20;99.90;;;;;;5095606;28;20413;-62
2020/12/09 07:10:12;;;;;;;49.88;27.83;;;4.10;99.90;;;;;;5095653;28;20055;-63
2020/12/09 07:12:38;;;;;;;51.00;26.35;;;4.10;99.90;;;;;;5096304;28;20020;-62
2020/12/09 07:15:05;;;;;;;51.37;27.73;;;4.10;99.90;;;;;;5096359;28;20468;-64
2020/12/09 07:17:32;;;;;;;51.78;26.90;;;4.10;99.90;;;;;;5094800;28;20028;-63
2020/12/09 07:19:57;;;;;;;48.30;26.33;;;4.10;99.90;;;;;;5095852;28;20020;-63
2020/12/09 07:22:25;;;;;;;52.70;26.30;;;4.20;99.90;;;;;;5095837;28;20065;-63
2020/12/09 07:24:51;;;;;;;51.17;25.52;;;4.20;99.90;;;;;;5095626;28;20473;-63
2020/12/09 07:27:18;;;;;;;49.63;25.77;;;4.20;99.90;;;;;;5095696;28;20490;-63
2020/12/09 07:29:45;;;;;;;51.08;27.73;;;4.20;99.90;;;;;;5095894;28;20020;-63
2020/12/09 07:32:15;;;;;;;46.95;26.55;;;4.30;99.90;;;;;;5095926;28;20048;-63
2020/12/09 07:34:57;;;;;;;51.38;26.88;;;4.30;99.90;;;;;;5094512;28;20027;-64
2020/12/09 07:37:31;;;;;;;52.38;27.48;;;4.30;99.90;;;;;;5095654;28;20107;-64
2020/12/09 07:40:01;;;;;;;47.03;26.02;;;4.30;99.90;;;;;;5094321;28;20020;-64
2020/12/09 07:42:27;;;;;;;48.17;25.52;;;4.40;99.90;;;;;;5095396;28;20035;-64
2020/12/09 07:44:54;;;;;;;55.30;27.43;;;4.50;99.90;;;;;;5095596;28;20032;-64
2020/12/09 07:47:24;;;;;;;51.03;26.20;;;4.50;99.90;;;;;;5094940;28;20310;-63
2020/12/09 07:50:06;;;;;;;51.70;26.98;;;4.50;99.90;;;;;;5095579;28;20032;-64
2020/12/09 07:52:37;;;;;;;53.95;27.02;;;4.50;99.90;;;;;;5095201;28;20030;-64
2020/12/09 07:55:12;;;;;;;50.22;25.92;;;4.50;99.90;;;;;;5095083;28;20025;-64
2020/12/09 07:57:38;;;;;;;50.63;26.48;;;4.60;99.90;;;;;;5094905;28;20480;-64
2020/12/09 08:00:10;;;;;;;49.88;26.83;;;4.50;99.90;;;;;;5095702;28;20085;-64
2020/12/09 08:02:37;;;;;;;54.58;28.60;;;4.50;99.90;;;;;;5095530;28;20426;-64
2020/12/09 08:05:21;;;;;;;54.47;28.35;;;4.50;99.90;;;;;;5093627;28;20024;-63
2020/12/09 08:07:54;;;;;;;55.83;28.63;;;4.60;99.90;;;;;;5094950;28;20498;-63
2020/12/09 08:10:26;;;;;;;53.80;29.50;;;4.60;99.90;;;;;;5095265;28;20048;-63
2020/12/09 08:13:00;;;;;;;51.58;26.80;;;4.60;99.90;;;;;;5095364;28;20020;-64
2020/12/09 08:15:25;;;;;;;53.80;27.20;;;4.60;99.90;;;;;;5095403;28;20020;-63
2020/12/09 08:17:51;;;;;;;50.53;27.67;;;4.60;99.90;;;;;;5093621;28;20038;-64
2020/12/09 08:20:17;;;;;;;58.13;30.67;;;4.70;99.90;;;;;;5095181;28;20077;-65
2020/12/09 08:22:53;;;;;;;51.70;27.55;;;4.60;99.90;;;;;;5095261;28;20044;-65
2020/12/09 08:25:20;;;;;;;55.15;27.10;;;4.70;99.90;;;;;;5095547;28;20028;-65
2020/12/09 08:27:47;;;;;;;48.83;26.55;;;4.70;99.90;;;;;;5094771;28;20468;-65
2020/12/09 08:30:21;;;;;;;50.58;26.50;;;4.70;99.90;;;;;;5094776;28;20107;-65
2020/12/09 08:32:54;;;;;;;46.85;25.77;;;4.70;99.90;;;;;;5094822;28;20089;-65
2020/12/09 08:35:19;;;;;;;52.33;25.77;;;4.70;99.90;;;;;;5094669;28;20024;-66
2020/12/09 08:37:45;;;;;;;51.97;26.30;;;4.70;99.90;;;;;;5094959;28;20027;-66
2020/12/09 08:40:11;;;;;;;50.33;28.10;;;4.80;99.90;;;;;;5094700;28;20024;-66
2020/12/09 08:42:36;;;;;;;52.50;27.30;;;4.80;99.90;;;;;;5094612;28;20024;-66
2020/12/09 08:45:03;;;;;;;48.73;27.30;;;4.90;99.90;;;;;;5094753;28;20464;-65
2020/12/09 08:47:28;;;;;;;;;;;4.80;99.90;;;;;;5094774;28;20027;-65
2020/12/09 08:49:54;;;;;;;52.05;26.02;;;4.90;99.90;;;;;;5093672;28;19943;-65
2020/12/09 08:52:19;;;;;;;50.03;26.17;;;4.90;99.90;;;;;;5094630;28;20026;-63
2020/12/09 08:54:45;;;;;;;51.50;25.60;;;5.00;99.90;;;;;;5094160;28;20099;-63
2020/12/09 08:57:11;;;;;;;52.07;26.20;;;4.90;99.90;;;;;;5094033;28;20362;-64
2020/12/09 08:59:36;;;;;;;48.93;26.53;;;4.90;99.90;;;;;;5093946;28;20024;-63
2020/12/09 09:02:02;;;;;;;55.13;28.67;;;4.90;99.90;;;;;;5094213;28;20090;-63
2020/12/09 09:04:32;;;;;;;52.40;27.70;;;4.90;99.90;;;;;;5093967;28;20016;-63
2020/12/09 09:06:57;;;;;;;52.00;26.92;;;4.90;99.90;;;;;;5093843;28;20035;-64
2020/12/09 09:09:23;;;;;;;51.80;28.00;;;4.90;99.90;;;;;;5094438;28;20016;-64
2020/12/09 09:11:49;;;;;;;50.00;26.50;;;4.80;99.90;;;;;;5094048;28;20016;-64
2020/12/09 09:14:15;;;;;;;54.77;28.43;;;4.90;99.90;;;;;;5093622;28;20069;-63
2020/12/09 09:16:41;;;;;;;48.80;26.67;;;4.80;99.90;;;;;;5093606;28;20016;-64
2020/12/09 09:19:06;;;;;;;51.13;26.40;;;4.90;99.90;;;;;;5093478;28;20050;-64
2020/12/09 09:21:37;;;;;;;56.63;27.67;;;5.00;99.90;;;;;;5093152;28;20273;-63
2020/12/09 09:24:03;;;;;;;54.00;29.23;;;5.00;99.90;;;;;;5095068;28;20020;-64
2020/12/09 09:26:36;;;;;;;50.50;27.50;;;5.10;99.90;;;;;;5094225;28;20044;-63
2020/12/09 09:29:02;;;;;;;48.28;26.55;;;5.20;99.90;;;;;;5094008;28;20186;-64
2020/12/09 09:31:28;;;;;;;49.10;26.58;;;5.20;99.90;;;;;;5094766;28;20024;-64
2020/12/09 09:33:53;;;;;;;46.67;24.80;;;5.30;99.90;;;;;;5094531;28;20077;-64
2020/12/09 09:36:19;;;;;;;48.50;26.23;;;5.30;99.90;;;;;;5094908;28;20035;-64
2020/12/09 09:38:44;;;;;;;56.83;26.17;;;5.40;99.90;;;;;;5093978;28;20063;-64
2020/12/09 09:41:10;;;;;;;49.53;26.03;;;5.50;99.90;;;;;;5093753;28;20052;-64
2020/12/09 09:43:36;;;;;;;48.47;27.07;;;5.60;99.90;;;;;;5094100;28;20028;-64
2020/12/09 09:46:02;;;;;;;46.60;25.65;;;5.60;99.90;;;;;;5093266;28;20039;-63
2020/12/09 09:48:28;;;;;;;46.27;24.17;;;5.60;99.90;;;;;;5093483;28;20072;-64
2020/12/09 09:50:53;;;;;;;45.40;24.10;;;5.60;99.90;;;;;;5093331;28;20353;-64
2020/12/09 09:53:19;;;;;;;44.17;24.20;;;5.60;99.90;;;;;;5093289;28;20257;-64
2020/12/09 09:55:44;;;;;;;49.43;24.40;;;5.60;99.90;;;;;;5093214;28;20158;-63
2020/12/09 09:58:10;;;;;;;44.70;24.47;;;5.70;99.90;;;;;;5093027;28;20043;-63
2020/12/09 10:00:36;;;;;;;42.27;23.07;;;5.70;99.90;;;;;;5093456;28;20439;-63
2020/12/09 10:03:01;;;;;;;43.40;24.30;;;5.70;99.90;;;;;;5093490;28;20085;-63
2020/12/09 10:05:27;;;;;;;44.70;22.80;;;5.70;99.90;;;;;;5093155;28;20027;-64
2020/12/09 10:07:53;;;;;;;44.83;23.15;;;5.70;99.90;;;;;;5093590;28;20091;-67
2020/12/09 10:10:19;;;;;;;45.13;23.40;;;5.70;99.90;;;;;;5095181;28;20034;-65
2020/12/09 10:12:44;;;;;;;41.77;23.37;;;5.70;99.90;;;;;;5097789;28;20098;-64
2020/12/09 10:15:10;;;;;;;43.33;22.27;;;5.70;99.90;;;;;;5097200;28;20031;-65
2020/12/09 10:17:36;;;;;;;42.73;22.83;;;5.60;99.90;;;;;;5097186;28;20035;-65
2020/12/09 10:20:02;;;;;;;42.83;22.77;;;5.60;99.90;;;;;;5097071;28;20032;-65
2020/12/09 10:22:27;;;;;;;44.75;23.33;;;5.60;99.90;;;;;;5097253;28;20485;-64
2020/12/09 10:24:54;;;;;;;46.67;23.07;;;5.60;99.90;;;;;;5096995;28;20066;-64
2020/12/09 10:27:20;;;;;;;43.88;23.30;;;5.60;99.90;;;;;;5097135;28;20099;-64
2020/12/09 10:29:46;;;;;;;45.78;23.95;;;5.50;99.90;;;;;;5096984;28;20025;-63
2020/12/09 10:32:11;;;;;;;49.13;22.50;;;5.50;99.90;;;;;;5097208;28;20065;-64
2020/12/09 10:34:38;;;;;;;41.60;21.73;;;5.50;99.90;;;;;;5097286;28;20465;-63
2020/12/09 10:37:04;;;;;;;42.90;22.35;;;5.60;99.90;;;;;;5097172;28;20028;-64
2020/12/09 10:39:30;;;;;;;42.33;21.83;;;5.60;99.90;;;;;;5097346;28;20016;-63
2020/12/09 10:41:55;;;;;;;37.43;20.10;;;5.60;99.90;;;;;;5097005;28;20024;-63
2020/12/09 10:44:21;;;;;;;38.50;20.73;;;5.60;99.90;;;;;;5097203;28;20024;-63
2020/12/09 10:46:47;;;;;;;32.73;19.03;;;5.60;99.90;;;;;;5096948;28;20401;-65
2020/12/09 10:49:17;;;;;;;31.77;18.65;;;5.50;99.90;;;;;;5096584;28;20020;-64
2020/12/09 10:51:47;;;;;;;30.23;18.02;;;5.50;99.90;;;;;;5096648;28;20365;-63
2020/12/09 10:54:18;;;;;;;34.65;19.17;;;5.40;99.90;;;;;;5094993;28;20043;-66
2020/12/09 10:56:44;;;;;;;36.15;19.52;;;5.40;99.90;;;;;;5097067;28;20077;-65
2020/12/09 10:59:09;;;;;;;37.33;19.40;;;5.30;99.90;;;;;;5096847;28;20032;-65
2020/12/09 11:01:35;;;;;;;32.00;18.87;;;5.30;99.90;;;;;;5096238;28;20093;-65
2020/12/09 11:04:01;;;;;;;35.07;19.53;;;5.30;99.90;;;;;;5096389;28;20385;-63
2020/12/09 11:06:28;;;;;;;39.53;20.08;;;5.30;99.90;;;;;;5096308;28;20017;-64
2020/12/09 11:08:55;;;;;;;32.40;18.38;;;5.30;99.90;;;;;;5096125;28;20054;-63
2020/12/09 11:11:21;;;;;;;39.70;19.60;;;5.30;99.90;;;;;;5096244;28;20016;-64
2020/12/09 11:13:47;;;;;;;35.95;19.35;;;5.30;99.90;;;;;;5096037;28;20532;-67
2020/12/09 11:16:16;;;;;;;36.93;19.90;;;5.40;99.90;;;;;;5094887;28;20084;-66
2020/12/09 11:18:42;;;;;;;36.00;19.30;;;5.40;99.90;;;;;;5094727;28;20024;-66
2020/12/09 11:21:09;;;;;;;30.60;16.83;;;5.40;99.90;;;;;;5093453;28;20028;-67
2020/12/09 11:23:34;;;;;;;32.33;17.73;;;5.40;99.90;;;;;;5095974;28;20097;-66
2020/12/09 11:26:00;;;;;;;30.37;17.30;;;5.40;99.90;;;;;;5095900;28;20112;-65
2020/12/09 11:28:26;;;;;;;32.85;17.65;;;5.40;99.90;;;;;;5096253;28;20028;-64
2020/12/09 11:30:52;;;;;;;37.87;19.50;;;5.40;99.90;;;;;;5095845;28;20035;-64
2020/12/09 11:33:17;;;;;;;36.03;19.10;;;5.50;99.90;;;;;;5095886;28;20024;-65
2020/12/09 11:35:43;;;;;;;38.23;19.93;;;5.50;99.90;;;;;;5095534;28;20131;-64
2020/12/09 11:38:09;;;;;;;34.40;17.23;;;5.60;99.90;;;;;;5096193;28;20030;-65
2020/12/09 11:40:34;;;;;;;31.20;17.60;;;5.60;99.90;;;;;;5096672;28;20269;-64
2020/12/09 11:43:00;;;;;;;33.13;18.57;;;5.70;99.90;;;;;;5095405;28;20032;-64
2020/12/09 11:45:25;;;;;;;35.20;18.80;;;5.70;99.90;;;;;;5095432;28;20488;-64
2020/12/09 11:47:51;;;;;;;35.30;19.33;;;5.70;99.90;;;;;;5095486;28;20024;-63
2020/12/09 11:50:17;;;;;;;32.90;18.73;;;5.70;99.90;;;;;;5095290;28;20050;-64
2020/12/09 11:52:42;;;;;;;37.80;20.17;;;5.70;99.90;;;;;;5093903;28;20388;-63
2020/12/09 11:55:09;;;;;;;38.40;20.77;;;5.80;99.90;;;;;;5095468;28;20602;-63
2020/12/09 11:57:35;;;;;;;39.67;19.38;;;5.80;99.90;;;;;;5095302;28;20068;-63
2020/12/09 12:00:00;;;;;;;35.33;19.87;;;5.90;99.90;;;;;;5095264;28;20092;-64
2020/12/09 12:02:26;;;;;;;35.37;19.60;;;6.00;99.90;;;;;;5095342;28;20383;-63
2020/12/09 12:04:55;;;;;;;36.73;20.13;;;6.00;99.90;;;;;;5095294;28;20028;-63
2020/12/09 12:07:21;;;;;;;34.58;19.27;;;6.10;99.90;;;;;;5095200;28;20016;-63
2020/12/09 12:09:46;;;;;;;38.80;20.70;;;6.10;99.90;;;;;;5095437;28;20073;-64
2020/12/09 12:12:12;;;;;;;41.40;21.60;;;6.10;99.90;;;;;;5095704;28;20676;-64
2020/12/09 12:14:38;;;;;;;41.67;20.47;;;6.00;99.90;;;;;;5094721;28;20016;-64
2020/12/09 12:17:08;;;;;;;35.43;18.83;;;6.00;99.90;;;;;;5097742;28;20512;-63
2020/12/09 12:19:37;;;;;;;39.03;19.38;;;5.80;99.90;;;;;;5096319;28;20024;-64
2020/12/09 12:22:06;;;;;;;36.58;18.85;;;5.80;99.90;;;;;;5095262;28;20028;-63
2020/12/09 12:24:33;;;;;;;38.05;19.05;;;5.80;99.90;;;;;;5094767;28;20020;-63
2020/12/09 12:26:58;;;;;;;36.40;18.30;;;5.70;99.90;;;;;;5095432;28;20028;-64
2020/12/09 12:29:24;;;;;;;33.87;18.00;;;5.70;99.90;;;;;;5096265;28;20024;-63
2020/12/09 12:31:50;;;;;;;32.93;18.07;;;5.60;99.90;;;;;;5095185;28;20031;-63
2020/12/09 12:34:15;;;;;;;36.30;18.40;;;5.50;99.90;;;;;;5095069;28;20016;-63
2020/12/09 12:36:41;;;;;;;35.63;18.40;;;5.50;99.90;;;;;;5094414;28;20039;-63
2020/12/09 12:39:08;;;;;;;32.13;17.23;;;5.50;99.90;;;;;;5094576;28;20023;-64
2020/12/09 12:41:34;;;;;;;33.80;16.92;;;5.40;99.90;;;;;;5094494;28;20266;-62